sensor_id;sensor_type;location;lat;lon;timestamp;temperature;humidity
12520;DHT22;6325;49.540;8.364;2023-12-04T00:00:58;-0.90;99.90
12520;DHT22;6325;49.540;8.364;2023-12-04T00:03:27;-0.30;99.90
12520;DHT22;6325;49.540;8.364;2023-12-04T00:05:55;-0.60;99.90
12520;DHT22;6325;49.540;8.364;2023-12-04T00:08:22;-0.90;99.90
12520;DHT22;6325;49.540;8.364;2023-12-04T00:10:48;-0.60;99.90
12520;DHT22;6325;49.540;8.364;2023-12-04T00:13:17;-1.40;99.90
12520;DHT22;6325;49.540;8.364;2023-12-04T00:15:44;-0.70;99.90
12520;DHT22;6325;49.540;8.364;2023-12-04T00:18:10;-0.30;99.90
12520;DHT22;6325;49.540;8.364;2023-12-04T00:20:37;-0.70;99.90
12520;DHT22;6325;49.540;8.364;2023-12-04T00:23:05;-0.60;99.90
12520;DHT22;6325;49.540;8.364;2023-12-04T00:25:32;-1.00;99.90
12520;DHT22;6325;49.540;8.364;2023-12-04T00:27:58;-0.80;99.90
12520;DHT22;6325;49.540;8.364;2023-12-04T00:30:25;-1.00;99.90
12520;DHT22;6325;49.540;8.364;2023-12-04T00:32:52;-0.70;99.90
12520;DHT22;6325;49.540;8.364;2023-12-04T00:35:18;-0.90;99.90
12520;DHT22;6325;49.540;8.364;2023-12-04T00:37:45;-0.80;99.90
12520;DHT22;6325;49.540;8.364;2023-12-04T00:40:13;-0.60;99.90
12520;DHT22;6325;49.540;8.364;2023-12-04T00:42:40;-1.20;99.90
12520;DHT22;6325;49.540;8.364;2023-12-04T00:45:08;-0.90;99.90
12520;DHT22;6325;49.540;8.364;2023-12-04T00:47:34;-1.00;99.90
12520;DHT22;6325;49.540;8.364;2023-12-04T00:50:01;-0.70;99.90
12520;DHT22;6325;49.540;8.364;2023-12-04T00:52:28;-0.90;99.90
12520;DHT22;6325;49.540;8.364;2023-12-04T00:54:55;-1.30;99.90
12520;DHT22;6325;49.540;8.364;2023-12-04T00:57:23;-1.10;99.90
12520;DHT22;6325;49.540;8.364;2023-12-04T00:59:50;-1.80;99.90
12520;DHT22;6325;49.540;8.364;2023-12-04T01:02:16;-0.80;99.90
12520;DHT22;6325;49.540;8.364;2023-12-04T01:04:43;-1.40;99.90
12520;DHT22;6325;49.540;8.364;2023-12-04T01:07:10;-1.30;99.90
12520;DHT22;6325;49.540;8.364;2023-12-04T01:09:37;-1.00;99.90
12520;DHT22;6325;49.540;8.364;2023-12-04T01:12:04;-1.50;99.90
12520;DHT22;6325;49.540;8.364;2023-12-04T01:14:32;-0.80;99.90
12520;DHT22;6325;49.540;8.364;2023-12-04T01:17:00;-1.30;99.90
12520;DHT22;6325;49.540;8.364;2023-12-04T01:19:26;-1.10;99.90
12520;DHT22;6325;49.540;8.364;2023-12-04T01:21:53;-1.90;99.90
12520;DHT22;6325;49.540;8.364;2023-12-04T01:24:20;-1.40;99.90
12520;DHT22;6325;49.540;8.364;2023-12-04T01:26:48;-1.20;99.90
12520;DHT22;6325;49.540;8.364;2023-12-04T01:29:15;-1.30;99.90
12520;DHT22;6325;49.540;8.364;2023-12-04T01:31:43;-2.00;99.90
12520;DHT22;6325;49.540;8.364;2023-12-04T01:34:10;-1.40;99.90
12520;DHT22;6325;49.540;8.364;2023-12-04T01:36:40;-1.00;99.90
12520;DHT22;6325;49.540;8.364;2023-12-04T01:39:07;-1.50;99.90
12520;DHT22;6325;49.540;8.364;2023-12-04T01:41:34;-1.40;99.90
12520;DHT22;6325;49.540;8.364;2023-12-04T01:44:01;-1.60;99.90
12520;DHT22;6325;49.540;8.364;2023-12-04T01:46:28;-1.40;99.90
12520;DHT22;6325;49.540;8.364;2023-12-04T01:48:56;-1.30;99.90
12520;DHT22;6325;49.540;8.364;2023-12-04T01:51:23;-1.10;99.90
12520;DHT22;6325;49.540;8.364;2023-12-04T01:53:51;-1.10;99.90
12520;DHT22;6325;49.540;8.364;2023-12-04T01:56:19;-1.20;99.90
12520;DHT22;6325;49.540;8.364;2023-12-04T01:58:46;-1.50;99.90
12520;DHT22;6325;49.540;8.364;2023-12-04T02:01:13;-1.80;99.90
12520;DHT22;6325;49.540;8.364;2023-12-04T02:03:41;-1.90;99.90
12520;DHT22;6325;49.540;8.364;2023-12-04T02:06:09;-1.20;99.90
12520;DHT22;6325;49.540;8.364;2023-12-04T02:08:37;-1.40;99.90
12520;DHT22;6325;49.540;8.364;2023-12-04T02:11:04;-1.20;99.90
12520;DHT22;6325;49.540;8.364;2023-12-04T02:13:31;-1.90;99.90
12520;DHT22;6325;49.540;8.364;2023-12-04T02:16:02;-1.50;99.90
12520;DHT22;6325;49.540;8.364;2023-12-04T02:18:30;-1.10;99.90
12520;DHT22;6325;49.540;8.364;2023-12-04T02:20:56;-1.60;99.90
12520;DHT22;6325;49.540;8.364;2023-12-04T02:23:25;-1.50;99.90
12520;DHT22;6325;49.540;8.364;2023-12-04T02:25:54;-1.60;99.90
12520;DHT22;6325;49.540;8.364;2023-12-04T02:28:26;-1.50;99.90
12520;DHT22;6325;49.540;8.364;2023-12-04T02:30:54;-1.50;99.90
12520;DHT22;6325;49.540;8.364;2023-12-04T02:33:23;-1.40;99.90
12520;DHT22;6325;49.540;8.364;2023-12-04T02:35:51;-1.40;99.90
12520;DHT22;6325;49.540;8.364;2023-12-04T02:38:18;-1.30;99.90
12520;DHT22;6325;49.540;8.364;2023-12-04T02:40:45;-1.30;99.90
12520;DHT22;6325;49.540;8.364;2023-12-04T02:43:13;-1.80;99.90
12520;DHT22;6325;49.540;8.364;2023-12-04T02:45:40;-1.50;99.90
12520;DHT22;6325;49.540;8.364;2023-12-04T02:48:07;-1.60;99.90
12520;DHT22;6325;49.540;8.364;2023-12-04T02:50:35;-1.60;99.90
12520;DHT22;6325;49.540;8.364;2023-12-04T02:53:02;-1.20;99.90
12520;DHT22;6325;49.540;8.364;2023-12-04T02:55:29;-1.40;99.90
12520;DHT22;6325;49.540;8.364;2023-12-04T02:57:58;-1.50;99.90
12520;DHT22;6325;49.540;8.364;2023-12-04T03:00:27;-2.20;99.90
12520;DHT22;6325;49.540;8.364;2023-12-04T03:02:54;-1.50;99.90
12520;DHT22;6325;49.540;8.364;2023-12-04T03:05:21;-1.30;99.90
12520;DHT22;6325;49.540;8.364;2023-12-04T03:07:48;-1.50;99.90
12520;DHT22;6325;49.540;8.364;2023-12-04T03:10:15;-1.50;99.90
12520;DHT22;6325;49.540;8.364;2023-12-04T03:12:42;-1.30;99.90
12520;DHT22;6325;49.540;8.364;2023-12-04T03:15:09;-1.20;99.90
12520;DHT22;6325;49.540;8.364;2023-12-04T03:17:39;-1.70;99.90
12520;DHT22;6325;49.540;8.364;2023-12-04T03:20:07;-2.00;99.90
12520;DHT22;6325;49.540;8.364;2023-12-04T03:22:34;-1.10;99.90
12520;DHT22;6325;49.540;8.364;2023-12-04T03:25:01;-1.40;99.90
12520;DHT22;6325;49.540;8.364;2023-12-04T03:27:28;-1.70;99.90
12520;DHT22;6325;49.540;8.364;2023-12-04T03:29:54;-1.00;99.90
12520;DHT22;6325;49.540;8.364;2023-12-04T03:32:21;-1.60;99.90
12520;DHT22;6325;49.540;8.364;2023-12-04T03:34:49;-1.20;99.90
12520;DHT22;6325;49.540;8.364;2023-12-04T03:37:16;-1.20;99.90
12520;DHT22;6325;49.540;8.364;2023-12-04T03:39:43;-1.80;99.90
12520;DHT22;6325;49.540;8.364;2023-12-04T03:42:11;-1.50;99.90
12520;DHT22;6325;49.540;8.364;2023-12-04T03:44:38;-1.10;99.90
12520;DHT22;6325;49.540;8.364;2023-12-04T03:47:05;-1.50;99.90
12520;DHT22;6325;49.540;8.364;2023-12-04T03:49:32;-1.50;99.90
12520;DHT22;6325;49.540;8.364;2023-12-04T03:52:00;-1.10;99.90
12520;DHT22;6325;49.540;8.364;2023-12-04T03:54:27;-1.60;99.90
12520;DHT22;6325;49.540;8.364;2023-12-04T03:56:54;-1.30;99.90
12520;DHT22;6325;49.540;8.364;2023-12-04T03:59:21;-1.20;99.90
12520;DHT22;6325;49.540;8.364;2023-12-04T04:01:47;-1.30;99.90
12520;DHT22;6325;49.540;8.364;2023-12-04T04:04:14;-1.90;99.90
12520;DHT22;6325;49.540;8.364;2023-12-04T04:06:41;-1.30;99.90
12520;DHT22;6325;49.540;8.364;2023-12-04T04:09:09;-1.80;99.90
12520;DHT22;6325;49.540;8.364;2023-12-04T04:11:35;-1.70;99.90
12520;DHT22;6325;49.540;8.364;2023-12-04T04:14:02;-1.60;99.90
12520;DHT22;6325;49.540;8.364;2023-12-04T04:16:29;-2.20;99.90
12520;DHT22;6325;49.540;8.364;2023-12-04T04:18:56;-1.60;99.90
12520;DHT22;6325;49.540;8.364;2023-12-04T04:21:23;-1.80;99.90
12520;DHT22;6325;49.540;8.364;2023-12-04T04:23:49;-1.50;99.90
12520;DHT22;6325;49.540;8.364;2023-12-04T04:26:17;-1.30;99.90
12520;DHT22;6325;49.540;8.364;2023-12-04T04:28:44;-1.70;99.90
12520;DHT22;6325;49.540;8.364;2023-12-04T04:31:11;-1.80;99.90
12520;DHT22;6325;49.540;8.364;2023-12-04T04:33:37;-1.50;99.90
12520;DHT22;6325;49.540;8.364;2023-12-04T04:36:05;-1.80;99.90
12520;DHT22;6325;49.540;8.364;2023-12-04T04:38:32;-1.40;99.90
12520;DHT22;6325;49.540;8.364;2023-12-04T04:40:59;-1.50;99.90
12520;DHT22;6325;49.540;8.364;2023-12-04T04:43:27;-1.50;99.90
12520;DHT22;6325;49.540;8.364;2023-12-04T04:45:54;-1.70;99.90
12520;DHT22;6325;49.540;8.364;2023-12-04T04:48:20;-2.00;99.90
12520;DHT22;6325;49.540;8.364;2023-12-04T04:50:47;-1.50;99.90
12520;DHT22;6325;49.540;8.364;2023-12-04T04:53:14;-1.40;99.90
12520;DHT22;6325;49.540;8.364;2023-12-04T04:55:41;-1.30;99.90
12520;DHT22;6325;49.540;8.364;2023-12-04T04:58:07;-1.60;99.90
12520;DHT22;6325;49.540;8.364;2023-12-04T05:00:35;-2.10;99.90
12520;DHT22;6325;49.540;8.364;2023-12-04T05:03:02;-1.20;99.90
12520;DHT22;6325;49.540;8.364;2023-12-04T05:05:29;-1.80;99.90
12520;DHT22;6325;49.540;8.364;2023-12-04T05:07:56;-2.10;99.90
12520;DHT22;6325;49.540;8.364;2023-12-04T05:10:22;-2.10;99.90
12520;DHT22;6325;49.540;8.364;2023-12-04T05:12:49;-1.70;99.90
12520;DHT22;6325;49.540;8.364;2023-12-04T05:15:16;-1.90;99.90
12520;DHT22;6325;49.540;8.364;2023-12-04T05:17:44;-1.60;99.90
12520;DHT22;6325;49.540;8.364;2023-12-04T05:20:11;-1.30;99.90
12520;DHT22;6325;49.540;8.364;2023-12-04T05:22:37;-1.70;99.90
12520;DHT22;6325;49.540;8.364;2023-12-04T05:25:05;-1.80;99.90
12520;DHT22;6325;49.540;8.364;2023-12-04T05:27:32;-1.80;99.90
12520;DHT22;6325;49.540;8.364;2023-12-04T05:29:59;-2.00;99.90
12520;DHT22;6325;49.540;8.364;2023-12-04T05:32:26;-1.20;99.90
12520;DHT22;6325;49.540;8.364;2023-12-04T05:34:54;-1.10;99.90
12520;DHT22;6325;49.540;8.364;2023-12-04T05:37:24;-1.30;99.90
12520;DHT22;6325;49.540;8.364;2023-12-04T05:39:50;-1.50;99.90
12520;DHT22;6325;49.540;8.364;2023-12-04T05:42:17;-1.20;99.90
12520;DHT22;6325;49.540;8.364;2023-12-04T05:44:44;-1.50;99.90
12520;DHT22;6325;49.540;8.364;2023-12-04T05:47:11;-1.30;99.90
12520;DHT22;6325;49.540;8.364;2023-12-04T05:49:37;-1.80;99.90
12520;DHT22;6325;49.540;8.364;2023-12-04T05:52:06;-1.10;99.90
12520;DHT22;6325;49.540;8.364;2023-12-04T05:54:33;-1.90;99.90
12520;DHT22;6325;49.540;8.364;2023-12-04T05:57:00;-1.70;99.90
12520;DHT22;6325;49.540;8.364;2023-12-04T05:59:26;-1.60;99.90
12520;DHT22;6325;49.540;8.364;2023-12-04T06:01:53;-1.10;99.90
12520;DHT22;6325;49.540;8.364;2023-12-04T06:04:20;-1.80;99.90
12520;DHT22;6325;49.540;8.364;2023-12-04T06:06:47;-1.60;99.90
12520;DHT22;6325;49.540;8.364;2023-12-04T06:09:15;-1.10;99.90
12520;DHT22;6325;49.540;8.364;2023-12-04T06:11:42;-1.70;99.90
12520;DHT22;6325;49.540;8.364;2023-12-04T06:14:09;-1.90;99.90
12520;DHT22;6325;49.540;8.364;2023-12-04T06:16:37;-1.30;99.90
12520;DHT22;6325;49.540;8.364;2023-12-04T06:19:04;-1.30;99.90
12520;DHT22;6325;49.540;8.364;2023-12-04T06:21:30;-1.50;99.90
12520;DHT22;6325;49.540;8.364;2023-12-04T06:23:58;-1.30;99.90
12520;DHT22;6325;49.540;8.364;2023-12-04T06:26:26;-1.40;99.90
12520;DHT22;6325;49.540;8.364;2023-12-04T06:28:54;-1.50;99.90
12520;DHT22;6325;49.540;8.364;2023-12-04T06:31:21;-1.30;99.90
12520;DHT22;6325;49.540;8.364;2023-12-04T06:33:49;-1.20;99.90
12520;DHT22;6325;49.540;8.364;2023-12-04T06:36:17;-1.00;99.90
12520;DHT22;6325;49.540;8.364;2023-12-04T06:38:47;-1.30;99.90
12520;DHT22;6325;49.540;8.364;2023-12-04T06:41:15;-1.90;99.90
12520;DHT22;6325;49.540;8.364;2023-12-04T06:43:45;-1.00;99.90
12520;DHT22;6325;49.540;8.364;2023-12-04T06:46:14;-1.80;99.90
12520;DHT22;6325;49.540;8.364;2023-12-04T06:48:43;-1.10;99.90
12520;DHT22;6325;49.540;8.364;2023-12-04T06:51:10;-1.10;99.90
12520;DHT22;6325;49.540;8.364;2023-12-04T06:53:42;-1.30;99.90
12520;DHT22;6325;49.540;8.364;2023-12-04T06:56:09;-1.30;99.90
12520;DHT22;6325;49.540;8.364;2023-12-04T06:58:37;-1.30;99.90
12520;DHT22;6325;49.540;8.364;2023-12-04T07:01:09;-1.40;99.90
12520;DHT22;6325;49.540;8.364;2023-12-04T07:03:36;-1.20;99.90
12520;DHT22;6325;49.540;8.364;2023-12-04T07:06:04;-1.30;99.90
12520;DHT22;6325;49.540;8.364;2023-12-04T07:08:31;-1.00;99.90
12520;DHT22;6325;49.540;8.364;2023-12-04T07:10:58;-1.20;99.90
12520;DHT22;6325;49.540;8.364;2023-12-04T07:13:24;-0.70;99.90
12520;DHT22;6325;49.540;8.364;2023-12-04T07:15:51;-1.00;99.90
12520;DHT22;6325;49.540;8.364;2023-12-04T07:18:19;-0.90;99.90
12520;DHT22;6325;49.540;8.364;2023-12-04T07:20:46;-0.80;99.90
12520;DHT22;6325;49.540;8.364;2023-12-04T07:23:13;-0.60;99.90
12520;DHT22;6325;49.540;8.364;2023-12-04T07:25:40;-1.20;99.90
12520;DHT22;6325;49.540;8.364;2023-12-04T07:28:07;-0.80;99.90
12520;DHT22;6325;49.540;8.364;2023-12-04T07:30:34;-1.10;99.90
12520;DHT22;6325;49.540;8.364;2023-12-04T07:33:01;-0.70;99.90
12520;DHT22;6325;49.540;8.364;2023-12-04T07:35:29;-0.80;99.90
12520;DHT22;6325;49.540;8.364;2023-12-04T07:37:56;-0.80;99.90
12520;DHT22;6325;49.540;8.364;2023-12-04T07:40:22;-1.00;99.90
12520;DHT22;6325;49.540;8.364;2023-12-04T07:42:49;-1.00;99.90
12520;DHT22;6325;49.540;8.364;2023-12-04T07:45:16;-1.20;99.90
12520;DHT22;6325;49.540;8.364;2023-12-04T07:47:43;-1.10;99.90
12520;DHT22;6325;49.540;8.364;2023-12-04T07:50:10;-0.60;99.90
12520;DHT22;6325;49.540;8.364;2023-12-04T07:52:38;-0.60;99.90
12520;DHT22;6325;49.540;8.364;2023-12-04T07:55:05;-0.40;99.90
12520;DHT22;6325;49.540;8.364;2023-12-04T07:57:32;-0.20;99.90
12520;DHT22;6325;49.540;8.364;2023-12-04T07:59:59;-0.40;99.90
12520;DHT22;6325;49.540;8.364;2023-12-04T08:02:26;-0.50;99.90
12520;DHT22;6325;49.540;8.364;2023-12-04T08:04:53;-0.30;99.90
12520;DHT22;6325;49.540;8.364;2023-12-04T08:07:20;-1.10;99.90
12520;DHT22;6325;49.540;8.364;2023-12-04T08:09:48;-0.30;99.90
12520;DHT22;6325;49.540;8.364;2023-12-04T08:12:15;-0.30;99.90
12520;DHT22;6325;49.540;8.364;2023-12-04T08:14:42;-0.70;99.90
12520;DHT22;6325;49.540;8.364;2023-12-04T08:17:08;-0.80;99.90
12520;DHT22;6325;49.540;8.364;2023-12-04T08:19:35;-0.10;99.90
12520;DHT22;6325;49.540;8.364;2023-12-04T08:22:03;-0.30;99.90
12520;DHT22;6325;49.540;8.364;2023-12-04T08:24:30;0.20;99.90
12520;DHT22;6325;49.540;8.364;2023-12-04T08:26:58;0.00;99.90
12520;DHT22;6325;49.540;8.364;2023-12-04T08:29:25;-0.10;99.90
12520;DHT22;6325;49.540;8.364;2023-12-04T08:31:52;0.00;99.90
12520;DHT22;6325;49.540;8.364;2023-12-04T08:34:18;-0.10;99.90
12520;DHT22;6325;49.540;8.364;2023-12-04T08:36:47;0.50;99.90
12520;DHT22;6325;49.540;8.364;2023-12-04T08:39:13;-0.30;99.90
12520;DHT22;6325;49.540;8.364;2023-12-04T08:41:40;0.00;99.90
12520;DHT22;6325;49.540;8.364;2023-12-04T08:44:08;0.40;99.90
12520;DHT22;6325;49.540;8.364;2023-12-04T08:46:37;0.90;99.90
12520;DHT22;6325;49.540;8.364;2023-12-04T08:49:03;0.70;99.90
12520;DHT22;6325;49.540;8.364;2023-12-04T08:51:30;1.10;99.90
12520;DHT22;6325;49.540;8.364;2023-12-04T08:53:57;0.90;99.90
12520;DHT22;6325;49.540;8.364;2023-12-04T08:56:23;0.50;99.90
12520;DHT22;6325;49.540;8.364;2023-12-04T08:58:50;1.30;99.90
12520;DHT22;6325;49.540;8.364;2023-12-04T09:01:18;0.50;99.90
12520;DHT22;6325;49.540;8.364;2023-12-04T09:03:45;0.80;99.90
12520;DHT22;6325;49.540;8.364;2023-12-04T09:06:12;1.10;99.90
12520;DHT22;6325;49.540;8.364;2023-12-04T09:08:40;1.10;99.90
12520;DHT22;6325;49.540;8.364;2023-12-04T09:11:07;0.60;99.90
12520;DHT22;6325;49.540;8.364;2023-12-04T09:13:34;1.10;99.90
12520;DHT22;6325;49.540;8.364;2023-12-04T09:16:01;1.10;99.90
12520;DHT22;6325;49.540;8.364;2023-12-04T09:18:29;1.30;99.90
12520;DHT22;6325;49.540;8.364;2023-12-04T09:20:56;0.60;99.90
12520;DHT22;6325;49.540;8.364;2023-12-04T09:23:23;1.30;99.90
12520;DHT22;6325;49.540;8.364;2023-12-04T09:25:49;1.40;99.90
12520;DHT22;6325;49.540;8.364;2023-12-04T09:28:16;0.50;99.90
12520;DHT22;6325;49.540;8.364;2023-12-04T09:30:43;1.30;99.90
12520;DHT22;6325;49.540;8.364;2023-12-04T09:33:10;0.60;99.90
12520;DHT22;6325;49.540;8.364;2023-12-04T09:35:38;1.20;99.90
12520;DHT22;6325;49.540;8.364;2023-12-04T09:38:05;1.20;99.90
12520;DHT22;6325;49.540;8.364;2023-12-04T09:40:32;0.50;99.90
12520;DHT22;6325;49.540;8.364;2023-12-04T09:42:59;0.90;99.90
12520;DHT22;6325;49.540;8.364;2023-12-04T09:45:26;1.50;99.90
12520;DHT22;6325;49.540;8.364;2023-12-04T09:47:56;1.10;99.90
12520;DHT22;6325;49.540;8.364;2023-12-04T09:50:23;1.60;99.90
12520;DHT22;6325;49.540;8.364;2023-12-04T09:52:51;0.70;99.90
12520;DHT22;6325;49.540;8.364;2023-12-04T09:55:19;1.20;99.90
12520;DHT22;6325;49.540;8.364;2023-12-04T09:57:46;1.00;99.90
12520;DHT22;6325;49.540;8.364;2023-12-04T10:00:15;1.60;99.90
12520;DHT22;6325;49.540;8.364;2023-12-04T10:02:42;0.80;99.90
12520;DHT22;6325;49.540;8.364;2023-12-04T10:05:09;1.50;99.90
12520;DHT22;6325;49.540;8.364;2023-12-04T10:07:36;1.50;99.90
12520;DHT22;6325;49.540;8.364;2023-12-04T10:10:05;1.40;99.90
12520;DHT22;6325;49.540;8.364;2023-12-04T10:12:33;1.80;99.90
12520;DHT22;6325;49.540;8.364;2023-12-04T10:15:06;0.90;99.90
12520;DHT22;6325;49.540;8.364;2023-12-04T10:17:34;1.20;99.90
12520;DHT22;6325;49.540;8.364;2023-12-04T10:20:07;1.70;99.90
12520;DHT22;6325;49.540;8.364;2023-12-04T10:22:38;1.40;99.90
12520;DHT22;6325;49.540;8.364;2023-12-04T10:25:15;1.30;99.90
12520;DHT22;6325;49.540;8.364;2023-12-04T10:27:43;1.30;99.90
12520;DHT22;6325;49.540;8.364;2023-12-04T10:30:22;1.40;99.90
12520;DHT22;6325;49.540;8.364;2023-12-04T10:32:49;1.40;99.90
12520;DHT22;6325;49.540;8.364;2023-12-04T10:35:20;1.40;99.90
12520;DHT22;6325;49.540;8.364;2023-12-04T10:37:48;0.70;99.90
12520;DHT22;6325;49.540;8.364;2023-12-04T10:40:24;1.50;99.90
12520;DHT22;6325;49.540;8.364;2023-12-04T10:42:51;0.90;99.90
12520;DHT22;6325;49.540;8.364;2023-12-04T10:45:18;1.50;99.90
12520;DHT22;6325;49.540;8.364;2023-12-04T10:47:48;1.00;99.90
12520;DHT22;6325;49.540;8.364;2023-12-04T10:50:16;1.50;99.90
12520;DHT22;6325;49.540;8.364;2023-12-04T10:52:44;1.20;99.90
12520;DHT22;6325;49.540;8.364;2023-12-04T10:55:11;1.50;99.90
12520;DHT22;6325;49.540;8.364;2023-12-04T10:57:41;0.90;99.90
12520;DHT22;6325;49.540;8.364;2023-12-04T11:00:11;1.20;99.90
12520;DHT22;6325;49.540;8.364;2023-12-04T11:02:43;1.80;99.90
12520;DHT22;6325;49.540;8.364;2023-12-04T11:05:14;1.30;99.90
12520;DHT22;6325;49.540;8.364;2023-12-04T11:07:47;1.50;99.90
12520;DHT22;6325;49.540;8.364;2023-12-04T11:10:15;1.50;99.90
12520;DHT22;6325;49.540;8.364;2023-12-04T11:12:45;1.00;99.90
12520;DHT22;6325;49.540;8.364;2023-12-04T11:15:16;1.30;99.90
12520;DHT22;6325;49.540;8.364;2023-12-04T11:17:49;1.40;99.90
12520;DHT22;6325;49.540;8.364;2023-12-04T11:20:19;1.30;99.90
12520;DHT22;6325;49.540;8.364;2023-12-04T11:22:49;1.20;99.90
12520;DHT22;6325;49.540;8.364;2023-12-04T11:25:17;0.40;99.90
12520;DHT22;6325;49.540;8.364;2023-12-04T11:27:45;1.60;99.90
12520;DHT22;6325;49.540;8.364;2023-12-04T11:30:13;1.50;99.90
12520;DHT22;6325;49.540;8.364;2023-12-04T11:32:44;1.60;99.90
12520;DHT22;6325;49.540;8.364;2023-12-04T11:35:13;1.30;99.90
12520;DHT22;6325;49.540;8.364;2023-12-04T11:37:42;0.60;99.90
12520;DHT22;6325;49.540;8.364;2023-12-04T11:40:11;1.50;99.90
12520;DHT22;6325;49.540;8.364;2023-12-04T11:42:39;0.90;99.90
12520;DHT22;6325;49.540;8.364;2023-12-04T11:45:08;1.60;99.90
12520;DHT22;6325;49.540;8.364;2023-12-04T11:47:51;1.60;99.90
12520;DHT22;6325;49.540;8.364;2023-12-04T11:50:19;0.90;99.90
12520;DHT22;6325;49.540;8.364;2023-12-04T11:52:46;1.20;99.90
12520;DHT22;6325;49.540;8.364;2023-12-04T11:55:16;0.80;99.90
12520;DHT22;6325;49.540;8.364;2023-12-04T11:57:43;1.60;99.90
12520;DHT22;6325;49.540;8.364;2023-12-04T12:00:19;1.40;99.90
12520;DHT22;6325;49.540;8.364;2023-12-04T12:02:50;0.70;99.90
12520;DHT22;6325;49.540;8.364;2023-12-04T12:05:28;1.00;99.90
12520;DHT22;6325;49.540;8.364;2023-12-04T12:07:55;1.60;99.90
12520;DHT22;6325;49.540;8.364;2023-12-04T12:10:22;0.70;99.90
12520;DHT22;6325;49.540;8.364;2023-12-04T12:12:48;1.10;99.90
12520;DHT22;6325;49.540;8.364;2023-12-04T12:15:17;1.90;99.90
12520;DHT22;6325;49.540;8.364;2023-12-04T12:17:43;1.30;99.90
12520;DHT22;6325;49.540;8.364;2023-12-04T12:20:13;1.60;99.90
12520;DHT22;6325;49.540;8.364;2023-12-04T12:22:40;1.10;99.90
12520;DHT22;6325;49.540;8.364;2023-12-04T12:25:10;1.70;99.90
12520;DHT22;6325;49.540;8.364;2023-12-04T12:27:37;2.00;99.90
12520;DHT22;6325;49.540;8.364;2023-12-04T12:30:05;1.00;99.90
12520;DHT22;6325;49.540;8.364;2023-12-04T12:32:34;1.70;99.90
12520;DHT22;6325;49.540;8.364;2023-12-04T12:35:01;1.90;99.90
12520;DHT22;6325;49.540;8.364;2023-12-04T12:37:28;1.50;99.90
12520;DHT22;6325;49.540;8.364;2023-12-04T12:39:57;1.30;99.90
12520;DHT22;6325;49.540;8.364;2023-12-04T12:42:24;1.50;99.90
12520;DHT22;6325;49.540;8.364;2023-12-04T12:44:52;2.00;99.90
12520;DHT22;6325;49.540;8.364;2023-12-04T12:47:19;1.00;99.90
12520;DHT22;6325;49.540;8.364;2023-12-04T12:49:47;1.20;99.90
12520;DHT22;6325;49.540;8.364;2023-12-04T12:52:14;1.70;99.90
12520;DHT22;6325;49.540;8.364;2023-12-04T12:54:43;1.40;99.90
12520;DHT22;6325;49.540;8.364;2023-12-04T12:57:10;1.10;99.90
12520;DHT22;6325;49.540;8.364;2023-12-04T12:59:38;1.80;99.90
12520;DHT22;6325;49.540;8.364;2023-12-04T13:02:05;1.20;99.90
12520;DHT22;6325;49.540;8.364;2023-12-04T13:04:36;1.70;99.90
12520;DHT22;6325;49.540;8.364;2023-12-04T13:07:04;1.70;99.90
12520;DHT22;6325;49.540;8.364;2023-12-04T13:09:32;2.10;99.90
12520;DHT22;6325;49.540;8.364;2023-12-04T13:12:01;2.10;99.90
12520;DHT22;6325;49.540;8.364;2023-12-04T13:14:28;1.90;99.90
12520;DHT22;6325;49.540;8.364;2023-12-04T13:16:54;2.30;99.90
12520;DHT22;6325;49.540;8.364;2023-12-04T13:19:21;1.50;99.90
12520;DHT22;6325;49.540;8.364;2023-12-04T13:21:48;2.00;99.90
12520;DHT22;6325;49.540;8.364;2023-12-04T13:24:16;1.90;99.90
12520;DHT22;6325;49.540;8.364;2023-12-04T13:26:43;1.70;99.90
12520;DHT22;6325;49.540;8.364;2023-12-04T13:29:10;1.10;99.90
12520;DHT22;6325;49.540;8.364;2023-12-04T13:31:37;1.50;99.90
12520;DHT22;6325;49.540;8.364;2023-12-04T13:34:04;1.80;99.90
12520;DHT22;6325;49.540;8.364;2023-12-04T13:36:32;1.40;99.90
12520;DHT22;6325;49.540;8.364;2023-12-04T13:38:59;1.40;99.90
12520;DHT22;6325;49.540;8.364;2023-12-04T13:41:27;1.00;99.90
12520;DHT22;6325;49.540;8.364;2023-12-04T13:44:11;1.30;99.90
12520;DHT22;6325;49.540;8.364;2023-12-04T13:46:40;1.60;99.90
12520;DHT22;6325;49.540;8.364;2023-12-04T13:49:07;1.60;99.90
12520;DHT22;6325;49.540;8.364;2023-12-04T13:51:35;1.50;99.90
12520;DHT22;6325;49.540;8.364;2023-12-04T13:54:05;1.70;99.90
12520;DHT22;6325;49.540;8.364;2023-12-04T13:56:47;1.40;99.90
12520;DHT22;6325;49.540;8.364;2023-12-04T13:59:19;1.70;99.90
12520;DHT22;6325;49.540;8.364;2023-12-04T14:01:47;1.40;99.90
12520;DHT22;6325;49.540;8.364;2023-12-04T14:04:16;1.20;99.90
12520;DHT22;6325;49.540;8.364;2023-12-04T14:06:43;1.20;99.90
12520;DHT22;6325;49.540;8.364;2023-12-04T14:09:10;1.10;99.90
12520;DHT22;6325;49.540;8.364;2023-12-04T14:11:41;0.90;99.90
12520;DHT22;6325;49.540;8.364;2023-12-04T14:14:10;1.50;99.90
12520;DHT22;6325;49.540;8.364;2023-12-04T14:16:38;1.00;99.90
12520;DHT22;6325;49.540;8.364;2023-12-04T14:19:05;0.80;99.90
12520;DHT22;6325;49.540;8.364;2023-12-04T14:21:32;1.30;99.90
12520;DHT22;6325;49.540;8.364;2023-12-04T14:23:59;1.00;99.90
12520;DHT22;6325;49.540;8.364;2023-12-04T14:26:25;1.70;99.90
12520;DHT22;6325;49.540;8.364;2023-12-04T14:28:53;1.40;99.90
12520;DHT22;6325;49.540;8.364;2023-12-04T14:31:23;1.80;99.90
12520;DHT22;6325;49.540;8.364;2023-12-04T14:33:50;0.90;99.90
12520;DHT22;6325;49.540;8.364;2023-12-04T14:36:18;1.90;99.90
12520;DHT22;6325;49.540;8.364;2023-12-04T14:38:45;1.60;99.90
12520;DHT22;6325;49.540;8.364;2023-12-04T14:41:11;1.20;99.90
12520;DHT22;6325;49.540;8.364;2023-12-04T14:43:38;1.10;99.90
12520;DHT22;6325;49.540;8.364;2023-12-04T14:46:05;1.30;99.90
12520;DHT22;6325;49.540;8.364;2023-12-04T14:48:36;1.30;99.90
12520;DHT22;6325;49.540;8.364;2023-12-04T14:51:04;1.50;99.90
12520;DHT22;6325;49.540;8.364;2023-12-04T14:53:31;1.50;99.90
12520;DHT22;6325;49.540;8.364;2023-12-04T14:56:09;1.30;99.90
12520;DHT22;6325;49.540;8.364;2023-12-04T14:58:56;1.40;99.90
12520;DHT22;6325;49.540;8.364;2023-12-04T15:01:40;1.70;99.90
12520;DHT22;6325;49.540;8.364;2023-12-04T15:04:26;1.60;99.90
12520;DHT22;6325;49.540;8.364;2023-12-04T15:07:29;1.40;99.90
12520;DHT22;6325;49.540;8.364;2023-12-04T15:10:10;1.90;99.90
12520;DHT22;6325;49.540;8.364;2023-12-04T15:13:26;1.40;99.90
12520;DHT22;6325;49.540;8.364;2023-12-04T15:16:10;1.20;99.90
12520;DHT22;6325;49.540;8.364;2023-12-04T15:18:58;0.90;99.90
12520;DHT22;6325;49.540;8.364;2023-12-04T15:21:58;1.60;99.90
12520;DHT22;6325;49.540;8.364;2023-12-04T15:24:25;1.40;99.90
12520;DHT22;6325;49.540;8.364;2023-12-04T15:26:52;1.90;99.90
12520;DHT22;6325;49.540;8.364;2023-12-04T15:29:18;1.70;99.90
12520;DHT22;6325;49.540;8.364;2023-12-04T15:31:46;2.10;99.90
12520;DHT22;6325;49.540;8.364;2023-12-04T15:34:12;1.60;99.90
12520;DHT22;6325;49.540;8.364;2023-12-04T15:36:39;2.10;99.90
12520;DHT22;6325;49.540;8.364;2023-12-04T15:39:06;1.50;99.90
12520;DHT22;6325;49.540;8.364;2023-12-04T15:41:34;1.10;99.90
12520;DHT22;6325;49.540;8.364;2023-12-04T15:44:00;1.30;99.90
12520;DHT22;6325;49.540;8.364;2023-12-04T15:46:27;1.50;99.90
12520;DHT22;6325;49.540;8.364;2023-12-04T15:48:54;1.60;99.90
12520;DHT22;6325;49.540;8.364;2023-12-04T15:51:21;1.70;99.90
12520;DHT22;6325;49.540;8.364;2023-12-04T15:53:48;1.30;99.90
12520;DHT22;6325;49.540;8.364;2023-12-04T15:56:16;1.60;99.90
12520;DHT22;6325;49.540;8.364;2023-12-04T15:58:43;2.10;99.90